Time;durP1;ratioP1;P1;durP2;ratioP2;P2;SDS_P1;SDS_P2;PMS_P1;PMS_P2;Temp;Humidity;BMP_temperature;BMP_pressure;BME280_temperature;BME280_humidity;BME280_pressure;Samples;Min_cycle;Max_cycle;Signal;HPM_P1;HPM_P2
2021/06/06 00:02:29;;;;;;;270.63;251.63;;;16.70;99.90;;;;;;5088927;28;20208;-83
2021/06/06 00:07:36;;;;;;;255.20;237.50;;;16.80;99.90;;;;;;5051238;28;20625;-82
2021/06/06 00:18:28;;;;;;;241.30;225.77;;;17.00;99.90;;;;;;5050858;28;20199;-84
2021/06/06 00:20:57;;;;;;;249.32;232.85;;;17.00;99.90;;;;;;5047823;28;20203;-84
2021/06/06 00:28:54;;;;;;;280.23;260.92;;;16.80;99.90;;;;;;5061609;28;20598;-83
2021/06/06 00:34:20;;;;;;;272.00;253.48;;;16.80;99.90;;;;;;5047357;28;20573;-82
2021/06/06 00:36:46;;;;;;;230.18;215.70;;;16.60;99.90;;;;;;5055918;28;20204;-83
2021/06/06 00:39:13;;;;;;;232.10;217.20;;;16.60;99.90;;;;;;5047659;28;20205;-83
2021/06/06 00:41:41;;;;;;;270.98;253.65;;;16.70;99.90;;;;;;5047479;28;20734;-83
2021/06/06 00:46:57;;;;;;;244.20;229.23;;;16.80;99.90;;;;;;5047275;28;20223;-83
2021/06/06 00:49:40;;;;;;;238.95;224.65;;;16.80;99.90;;;;;;5054492;28;20264;-83
2021/06/06 00:54:52;;;;;;;254.65;238.48;;;16.90;99.90;;;;;;5057264;28;20213;-83
2021/06/06 01:00:13;;;;;;;244.80;229.38;;;16.80;99.90;;;;;;5050562;28;20212;-83
2021/06/06 01:11:16;;;;;;;232.75;218.15;;;16.80;99.90;;;;;;5087690;28;20209;-84
2021/06/06 01:13:56;;;;;;;268.60;251.07;;;16.90;99.90;;;;;;5087848;28;20207;-84
2021/06/06 01:16:36;;;;;;;262.52;246.57;;;16.70;99.90;;;;;;5095149;28;20213;-84
2021/06/06 01:19:09;;;;;;;260.42;243.30;;;16.70;99.90;;;;;;5104609;28;20226;-84
2021/06/06 01:22:02;;;;;;;269.48;252.13;;;16.80;99.90;;;;;;5095324;28;20222;-84
2021/06/06 01:24:32;;;;;;;237.48;222.25;;;16.90;99.90;;;;;;5093198;28;20253;-84
2021/06/06 01:29:49;;;;;;;255.13;239.38;;;17.00;99.90;;;;;;5087701;28;20265;-83
2021/06/06 01:35:31;;;;;;;240.38;224.68;;;16.80;99.90;;;;;;5101947;28;20293;-84
2021/06/06 01:38:40;;;;;;;246.18;230.80;;;16.80;99.90;;;;;;5088123;28;20213;-84
2021/06/06 01:41:28;;;;;;;223.02;208.75;;;16.80;99.90;;;;;;5090914;28;20217;-85
2021/06/06 01:43:58;;;;;;;221.82;207.57;;;16.90;99.90;;;;;;5093279;28;20204;-85
2021/06/06 01:46:41;;;;;;;205.23;192.27;;;17.00;99.90;;;;;;5087629;28;20207;-85
2021/06/06 01:49:21;;;;;;;202.30;189.32;;;17.00;99.90;;;;;;5096796;28;20207;-85
2021/06/06 01:51:53;;;;;;;197.70;185.13;;;17.00;99.90;;;;;;5094242;28;20243;-84
2021/06/06 01:54:38;;;;;;;217.95;203.40;;;17.00;99.90;;;;;;5103134;28;20219;-85
2021/06/06 02:00:29;;;;;;;236.55;221.88;;;16.90;99.90;;;;;;5094376;28;20227;-85
2021/06/06 02:03:31;;;;;;;231.88;217.20;;;16.80;99.90;;;;;;5101589;28;20239;-85
2021/06/06 02:05:59;;;;;;;222.85;209.45;;;16.80;99.90;;;;;;5098069;28;20234;-85
2021/06/06 02:08:43;;;;;;;233.45;219.30;;;16.80;99.90;;;;;;5102043;28;20235;-85
2021/06/06 02:11:26;;;;;;;224.30;210.65;;;16.70;99.90;;;;;;5096805;28;20265;-84
2021/06/06 02:14:04;;;;;;;224.73;211.13;;;16.50;99.90;;;;;;5085583;28;20206;-85
2021/06/06 02:16:46;;;;;;;242.98;227.48;;;16.60;99.90;;;;;;5087153;28;20207;-85
2021/06/06 02:19:14;;;;;;;244.75;229.88;;;16.70;99.90;;;;;;5087646;28;20207;-86
2021/06/06 02:21:59;;;;;;;238.32;223.65;;;16.70;99.90;;;;;;5088787;28;20236;-84
2021/06/06 02:24:39;;;;;;;232.82;218.48;;;16.70;99.90;;;;;;5099696;28;20229;-84
2021/06/06 02:27:50;;;;;;;239.85;225.15;;;16.70;99.90;;;;;;5086581;28;20245;-84
2021/06/06 02:37:25;;;;;;;264.55;248.15;;;16.40;99.90;;;;;;5084279;28;20199;-83
2021/06/06 02:40:26;;;;;;;254.38;238.20;;;16.50;99.90;;;;;;5086226;28;20603;-83
2021/06/06 02:43:10;;;;;;;244.27;228.90;;;16.50;99.90;;;;;;5094061;28;20209;-83
2021/06/06 02:45:52;;;;;;;237.15;222.18;;;16.60;99.90;;;;;;5090931;28;20237;-83
2021/06/06 02:48:25;;;;;;;242.43;226.18;;;16.60;99.90;;;;;;5097023;28;20210;-83
2021/06/06 02:51:09;;;;;;;257.65;241.90;;;16.60;99.90;;;;;;5093128;28;20212;-83
2021/06/06 02:57:19;;;;;;;244.73;229.63;;;16.70;99.90;;;;;;5096390;28;20341;-83
2021/06/06 03:03:09;;;;;;;242.20;227.55;;;16.60;99.90;;;;;;5107985;28;20229;-83
2021/06/06 03:05:38;;;;;;;240.60;225.50;;;16.70;99.90;;;;;;5093901;28;20578;-85
2021/06/06 03:08:20;;;;;;;237.85;223.23;;;16.70;99.90;;;;;;5094913;28;20206;-85
2021/06/06 03:11:23;;;;;;;210.45;197.73;;;16.80;99.90;;;;;;5095414;28;20257;-85
2021/06/06 03:14:08;;;;;;;247.63;231.75;;;16.80;99.90;;;;;;5093498;28;20232;-85
2021/06/06 03:19:58;;;;;;;227.02;213.13;;;16.80;99.90;;;;;;5103080;28;20510;-85
2021/06/06 03:22:30;;;;;;;224.30;210.55;;;16.80;99.90;;;;;;5090412;28;20207;-85
2021/06/06 03:25:37;;;;;;;221.13;207.93;;;16.80;99.90;;;;;;5092009;28;20492;-84
2021/06/06 03:28:10;;;;;;;219.00;205.70;;;16.70;99.90;;;;;;5093931;28;20207;-84
2021/06/06 03:30:50;;;;;;;239.07;223.77;;;16.60;99.90;;;;;;5096233;28;20205;-85
2021/06/06 03:39:46;;;;;;;248.88;233.52;;;16.60;99.90;;;;;;5096479;28;20201;-84
2021/06/06 03:55:17;;;;;;;237.80;222.52;;;16.50;99.90;;;;;;5091090;28;20235;-84
2021/06/06 03:57:44;;;;;;;222.35;208.30;;;16.30;99.90;;;;;;5092897;28;20207;-81
2021/06/06 04:03:11;;;;;;;243.85;228.00;;;16.20;99.90;;;;;;5094937;28;20237;-84
2021/06/06 04:05:43;;;;;;;231.35;216.48;;;16.30;99.90;;;;;;5097912;28;20247;-84
2021/06/06 04:08:22;;;;;;;246.48;231.13;;;16.30;99.90;;;;;;5096283;28;20222;-84
2021/06/06 04:11:05;;;;;;;235.18;220.10;;;16.30;99.90;;;;;;5091189;28;20233;-84
2021/06/06 04:13:51;;;;;;;217.73;202.93;;;16.40;99.90;;;;;;5092758;28;20207;-84
2021/06/06 04:16:18;;;;;;;246.23;230.07;;;16.40;99.90;;;;;;5091966;28;20301;-84
2021/06/06 04:18:59;;;;;;;218.95;203.73;;;16.40;99.90;;;;;;5090915;28;20203;-84
2021/06/06 04:21:47;;;;;;;239.32;222.82;;;16.40;99.90;;;;;;5091442;28;20240;-84
2021/06/06 04:24:14;;;;;;;238.70;222.88;;;16.40;99.90;;;;;;5096996;28;20229;-84
2021/06/06 04:26:53;;;;;;;258.38;240.20;;;16.50;99.90;;;;;;5092069;28;20214;-84
2021/06/06 04:29:40;;;;;;;247.57;229.68;;;16.50;99.90;;;;;;5091298;28;20203;-84
2021/06/06 04:35:27;;;;;;;248.90;231.15;;;16.50;99.90;;;;;;5090954;28;20210;-84
2021/06/06 04:37:54;;;;;;;252.95;234.57;;;16.50;99.90;;;;;;5095813;28;20233;-84
2021/06/06 04:40:49;;;;;;;255.40;237.43;;;16.40;99.90;;;;;;5090848;28;20200;-84
2021/06/06 04:43:17;;;;;;;265.40;246.20;;;16.50;99.90;;;;;;5089293;28;20205;-85
2021/06/06 04:45:57;;;;;;;246.15;227.82;;;16.50;99.90;;;;;;5094310;28;20278;-84
2021/06/06 04:52:13;;;;;;;253.38;235.90;;;16.20;99.90;;;;;;5088942;28;20868;-84
2021/06/06 04:54:50;;;;;;;257.63;239.57;;;16.20;99.90;;;;;;5097181;28;20212;-84
2021/06/06 04:57:24;;;;;;;248.98;231.40;;;16.20;99.90;;;;;;5095820;28;20208;-84
2021/06/06 05:00:11;;;;;;;234.65;218.88;;;16.20;99.90;;;;;;5088687;28;20213;-85
2021/06/06 05:02:38;;;;;;;241.73;225.13;;;16.20;99.90;;;;;;5100993;28;20210;-79
2021/06/06 05:05:07;;;;;;;227.05;211.65;;;16.20;99.90;;;;;;5091325;28;20248;-84
2021/06/06 05:07:34;;;;;;;227.30;211.38;;;16.20;99.90;;;;;;5101360;28;20201;-83
2021/06/06 05:10:10;;;;;;;220.63;205.48;;;16.20;99.90;;;;;;5096143;28;20221;-83
2021/06/06 05:15:34;;;;;;;251.30;233.45;;;16.30;99.90;;;;;;5095336;28;20238;-83
2021/06/06 05:18:05;;;;;;;235.10;216.63;;;16.40;99.90;;;;;;5090361;28;20653;-83
2021/06/06 05:20:34;;;;;;;245.80;228.18;;;16.40;99.90;;;;;;5088338;28;20235;-83
2021/06/06 05:23:01;;;;;;;245.55;227.68;;;16.50;99.90;;;;;;5095510;28;20226;-83
2021/06/06 05:31:28;;;;;;;230.98;214.40;;;16.40;99.90;;;;;;5093347;28;20208;-83
2021/06/06 05:37:43;;;;;;;244.15;227.20;;;16.50;99.90;;;;;;5095449;28;20216;-82
2021/06/06 05:43:28;;;;;;;219.85;203.68;;;16.50;99.90;;;;;;5091780;28;20880;-82
2021/06/06 05:59:47;;;;;;;214.70;199.05;;;16.70;99.90;;;;;;4904864;29;20269;-83
2021/06/06 06:02:16;;;;;;;243.45;226.13;;;16.70;99.90;;;;;;4891219;29;20217;-83
2021/06/06 06:08:13;;;;;;;216.98;201.77;;;16.60;99.90;;;;;;4851542;29;20219;-83
2021/06/06 06:10:42;;;;;;;234.02;217.35;;;16.80;99.90;;;;;;4900686;29;20219;-78
2021/06/06 06:18:38;;;;;;;236.57;219.93;;;16.90;99.90;;;;;;4901544;29;20737;-79
2021/06/06 06:26:36;;;;;;;242.65;226.48;;;17.00;99.90;;;;;;5054169;28;20228;-79
2021/06/06 06:34:35;;;;;;;229.65;213.68;;;17.10;99.90;;;;;;5098671;28;20202;-79
2021/06/06 06:45:06;;;;;;;203.63;189.82;;;17.10;99.90;;;;;;5096025;28;22278;-79
2021/06/06 06:47:34;;;;;;;212.38;199.00;;;17.00;99.90;;;;;;5100400;28;20207;-79
2021/06/06 06:50:01;;;;;;;207.35;193.50;;;17.00;99.90;;;;;;5095615;28;20205;-79
2021/06/06 06:55:19;;;;;;;198.48;184.52;;;17.00;99.90;;;;;;5095470;28;20200;-79
2021/06/06 07:00:35;;;;;;;233.88;218.88;;;17.10;99.90;;;;;;5101000;28;20201;-79
2021/06/06 07:08:33;;;;;;;208.93;194.25;;;17.10;99.90;;;;;;5099256;28;20211;-78
2021/06/06 07:16:30;;;;;;;248.48;230.15;;;16.80;99.90;;;;;;5094490;28;20575;-83
2021/06/06 07:19:14;;;;;;;252.15;233.77;;;16.80;99.90;;;;;;5095698;28;20275;-83
2021/06/06 07:22:19;;;;;;;221.07;203.52;;;16.70;99.90;;;;;;5098413;28;20209;-83
2021/06/06 07:30:37;;;;;;;251.90;231.70;;;16.60;99.90;;;;;;5101440;28;20228;-83
2021/06/06 07:36:04;;;;;;;211.95;193.98;;;16.50;99.90;;;;;;5109862;28;20212;-83
2021/06/06 07:38:34;;;;;;;219.77;201.90;;;16.50;99.90;;;;;;5112510;28;20210;-83
2021/06/06 07:41:01;;;;;;;235.68;216.98;;;16.50;99.90;;;;;;5118274;28;20198;-83
2021/06/06 07:43:28;;;;;;;215.13;197.80;;;16.40;99.90;;;;;;5114931;28;20189;-83
2021/06/06 07:51:30;;;;;;;234.65;213.57;;;16.40;99.90;;;;;;5116211;28;20214;-83
2021/06/06 07:54:01;;;;;;;220.45;201.63;;;16.50;99.90;;;;;;5113280;28;20236;-83
2021/06/06 07:56:28;;;;;;;235.48;215.23;;;16.40;99.90;;;;;;5115431;28;20198;-83
2021/06/06 07:58:54;;;;;;;255.40;234.02;;;16.40;99.90;;;;;;5121238;28;20224;-83
2021/06/06 08:04:11;;;;;;;252.32;231.07;;;16.50;99.90;;;;;;5119523;28;20275;-83
2021/06/06 08:07:00;;;;;;;236.70;217.60;;;16.60;99.90;;;;;;5119844;28;20251;-83
2021/06/06 08:09:29;;;;;;;244.68;224.43;;;16.70;99.90;;;;;;5115604;28;20251;-83
2021/06/06 08:11:56;;;;;;;211.75;195.10;;;16.70;99.90;;;;;;5117176;28;20237;-83
2021/06/06 08:14:22;;;;;;;220.80;202.68;;;16.70;99.90;;;;;;5118594;28;20287;-83
2021/06/06 08:17:10;;;;;;;216.88;199.48;;;16.80;99.90;;;;;;5118244;28;20188;-83
2021/06/06 08:19:38;;;;;;;198.70;182.98;;;17.00;99.90;;;;;;5104454;28;20192;-83
2021/06/06 08:22:17;;;;;;;218.25;201.98;;;17.10;99.90;;;;;;5100921;28;20233;-83
2021/06/06 08:24:44;;;;;;;198.73;183.32;;;17.10;99.90;;;;;;5098816;28;20217;-83
2021/06/06 08:27:11;;;;;;;216.63;201.35;;;17.20;99.90;;;;;;5099645;28;20218;-83
2021/06/06 08:29:58;;;;;;;190.90;176.10;;;17.20;99.90;;;;;;5099951;28;20217;-83
2021/06/06 08:32:26;;;;;;;216.90;201.13;;;17.20;99.90;;;;;;5101998;28;20204;-83
2021/06/06 08:34:53;;;;;;;218.80;202.10;;;17.30;99.90;;;;;;5101886;28;20202;-82
2021/06/06 08:37:21;;;;;;;224.85;208.40;;;17.30;99.90;;;;;;5100404;28;20207;-82
2021/06/06 08:40:09;;;;;;;207.75;191.43;;;17.30;99.90;;;;;;5099894;28;20211;-82
2021/06/06 08:42:40;;;;;;;211.70;196.52;;;17.20;99.90;;;;;;5102413;28;20220;-81
2021/06/06 08:48:29;;;;;;;222.27;205.73;;;17.30;99.90;;;;;;5096890;28;20201;-82
2021/06/06 08:51:06;;;;;;;226.30;209.93;;;17.30;99.90;;;;;;5107326;28;20209;-82
2021/06/06 08:54:11;;;;;;;206.52;192.38;;;17.30;99.90;;;;;;5097374;28;20261;-82
2021/06/06 08:56:49;;;;;;;199.48;184.55;;;17.20;99.90;;;;;;5097501;28;20206;-82
2021/06/06 08:59:28;;;;;;;207.48;192.15;;;17.10;99.90;;;;;;5098534;28;20214;-82
2021/06/06 09:02:08;;;;;;;205.48;189.50;;;17.10;99.90;;;;;;5075827;28;20208;-81
2021/06/06 09:04:41;;;;;;;206.75;190.80;;;17.20;99.90;;;;;;5092537;28;20245;-79
2021/06/06 09:07:21;;;;;;;204.30;188.02;;;17.20;99.90;;;;;;5089666;28;20360;-78
2021/06/06 09:15:16;;;;;;;222.52;205.88;;;17.30;99.90;;;;;;5085378;28;20200;-77
2021/06/06 09:17:45;;;;;;;208.13;192.57;;;17.30;99.90;;;;;;5087553;28;20199;-78
2021/06/06 09:23:52;;;;;;;240.80;221.68;;;17.20;99.90;;;;;;5095812;28;20226;-83
2021/06/06 09:26:26;;;;;;;231.85;214.00;;;17.20;99.90;;;;;;5095206;28;20234;-83
2021/06/06 09:29:36;;;;;;;210.13;194.35;;;17.30;99.90;;;;;;5110777;28;20190;-83
2021/06/06 09:32:09;;;;;;;218.77;201.10;;;17.30;99.90;;;;;;5104989;28;20182;-83
2021/06/06 09:34:54;;;;;;;225.15;207.20;;;17.40;99.90;;;;;;5109102;28;20191;-83
2021/06/06 09:37:22;;;;;;;198.23;182.35;;;17.50;99.90;;;;;;5102844;28;20190;-83
2021/06/06 09:40:07;;;;;;;196.15;180.85;;;17.60;99.90;;;;;;5114239;28;20196;-83
2021/06/06 09:42:53;;;;;;;184.82;170.70;;;17.80;99.90;;;;;;5101103;28;20209;-83
2021/06/06 09:45:24;;;;;;;201.88;186.75;;;17.80;99.90;;;;;;5105669;28;20236;-83
2021/06/06 09:48:23;;;;;;;203.27;187.90;;;17.80;99.90;;;;;;5088288;28;20252;-82
2021/06/06 09:56:24;;;;;;;192.82;177.82;;;17.60;99.90;;;;;;5095218;28;20340;-83
2021/06/06 09:59:33;;;;;;;192.05;177.85;;;17.60;99.90;;;;;;5093782;28;20209;-83
2021/06/06 10:08:36;;;;;;;218.02;200.90;;;17.50;99.90;;;;;;5103497;28;20201;-81
2021/06/06 10:11:11;;;;;;;185.93;170.13;;;17.40;99.90;;;;;;5103990;28;20203;-81
2021/06/06 10:13:45;;;;;;;195.90;181.50;;;17.50;99.90;;;;;;5108991;28;20280;-82
2021/06/06 10:16:22;;;;;;;203.30;187.68;;;17.60;99.90;;;;;;5105139;28;20206;-81
2021/06/06 10:19:09;;;;;;;199.25;184.52;;;17.50;99.90;;;;;;5104864;28;20220;-82
2021/06/06 10:21:48;;;;;;;180.68;166.10;;;17.50;99.90;;;;;;5106766;28;20203;-82
2021/06/06 10:24:35;;;;;;;179.75;164.57;;;17.50;99.90;;;;;;5110414;28;20225;-82
2021/06/06 10:27:08;;;;;;;180.27;167.38;;;17.60;99.90;;;;;;5117851;28;20209;-82
2021/06/06 10:29:47;;;;;;;165.60;152.85;;;17.60;99.90;;;;;;5103881;28;20209;-82
2021/06/06 10:35:29;;;;;;;160.95;149.00;;;17.60;99.90;;;;;;5107083;28;20270;-81
2021/06/06 10:38:17;;;;;;;167.48;155.30;;;17.60;99.90;;;;;;5105698;28;20526;-82
2021/06/06 10:40:48;;;;;;;165.45;153.45;;;17.70;99.90;;;;;;5115688;28;20212;-84
2021/06/06 10:43:29;;;;;;;165.40;152.90;;;17.70;99.90;;;;;;5104184;28;20206;-81
2021/06/06 10:46:05;;;;;;;148.50;136.55;;;17.70;99.90;;;;;;5104632;28;20206;-82
2021/06/06 10:48:37;;;;;;;171.32;158.82;;;17.70;99.90;;;;;;5113740;28;20212;-82
2021/06/06 10:51:30;;;;;;;154.48;143.70;;;17.70;99.90;;;;;;5104453;28;20209;-82
2021/06/06 10:53:58;;;;;;;145.52;135.48;;;17.60;99.90;;;;;;5115613;28;20280;-82
2021/06/06 10:56:41;;;;;;;144.00;132.85;;;17.60;99.90;;;;;;5087363;28;20198;-82
2021/06/06 10:59:46;;;;;;;154.32;143.07;;;17.50;99.90;;;;;;5103505;28;20194;-81
2021/06/06 11:02:29;;;;;;;164.20;153.40;;;17.60;99.90;;;;;;5109850;28;20205;-82
2021/06/06 11:05:00;;;;;;;147.65;136.10;;;17.50;99.90;;;;;;5065263;28;20207;-82
2021/06/06 11:07:47;;;;;;;168.30;155.25;;;17.50;99.90;;;;;;5068318;28;20207;-81
2021/06/06 11:10:52;;;;;;;137.98;126.60;;;17.40;99.90;;;;;;5063805;28;20262;-81
2021/06/06 11:13:35;;;;;;;156.50;145.48;;;17.50;99.90;;;;;;5068438;28;20204;-82
2021/06/06 11:16:06;;;;;;;136.95;126.90;;;17.50;99.90;;;;;;5053355;28;20203;-82
2021/06/06 11:18:44;;;;;;;162.90;151.43;;;17.40;99.90;;;;;;5051198;28;20197;-82
2021/06/06 11:21:48;;;;;;;154.07;143.48;;;17.50;99.90;;;;;;5051807;28;20225;-82
2021/06/06 11:24:53;;;;;;;147.07;136.90;;;17.60;99.90;;;;;;5056521;28;20234;-82
2021/06/06 11:27:59;;;;;;;140.52;131.50;;;17.60;99.90;;;;;;5056348;28;20195;-82
2021/06/06 11:30:43;;;;;;;154.00;143.23;;;17.60;99.90;;;;;;5050931;28;20207;-82
2021/06/06 11:33:28;;;;;;;146.25;136.98;;;17.70;99.90;;;;;;5060006;28;20209;-82
2021/06/06 11:35:55;;;;;;;162.90;152.38;;;17.60;99.90;;;;;;5058985;28;20211;-82
2021/06/06 11:39:12;;;;;;;140.85;130.65;;;17.60;99.90;;;;;;5060713;28;20211;-82
2021/06/06 11:41:41;;;;;;;142.75;133.48;;;17.60;99.90;;;;;;5057178;28;20211;-82
2021/06/06 11:44:16;;;;;;;133.63;124.45;;;17.70;99.90;;;;;;5057254;28;20257;-82
2021/06/06 11:46:57;;;;;;;152.32;142.30;;;17.80;99.90;;;;;;5053365;28;20206;-82
2021/06/06 11:50:04;;;;;;;131.13;122.70;;;17.80;99.90;;;;;;5063888;28;20693;-81
2021/06/06 11:52:36;;;;;;;134.98;125.28;;;17.90;99.90;;;;;;5056399;28;20659;-82
2021/06/06 11:55:18;;;;;;;141.32;132.13;;;17.80;99.90;;;;;;5056402;28;20201;-82
2021/06/06 12:04:09;;;;;;;152.32;141.85;;;18.10;99.90;;;;;;5086257;28;20233;-82
2021/06/06 12:06:54;;;;;;;142.40;132.25;;;18.00;99.90;;;;;;5096648;28;20200;-82
2021/06/06 12:09:26;;;;;;;154.60;143.82;;;18.00;99.90;;;;;;5079301;28;20237;-82
2021/06/06 12:12:14;;;;;;;138.02;128.88;;;17.90;99.90;;;;;;5096073;28;20212;-82
2021/06/06 12:14:41;;;;;;;169.75;157.50;;;17.80;99.90;;;;;;5094642;28;20210;-82
2021/06/06 12:17:20;;;;;;;139.70;129.93;;;17.80;99.90;;;;;;5077178;28;20209;-78
2021/06/06 12:22:36;;;;;;;133.35;123.90;;;17.70;99.90;;;;;;5094388;28;20286;-77
2021/06/06 12:28:01;;;;;;;135.88;126.28;;;17.80;99.90;;;;;;5096198;28;20207;-77
2021/06/06 12:30:38;;;;;;;161.23;150.75;;;17.80;99.90;;;;;;5099488;28;20206;-78
2021/06/06 12:33:17;;;;;;;155.68;145.45;;;17.80;99.90;;;;;;5100273;28;20249;-77
2021/06/06 12:35:52;;;;;;;149.70;138.82;;;17.80;99.90;;;;;;5096735;28;20205;-78
2021/06/06 12:43:49;;;;;;;152.57;142.65;;;18.10;99.90;;;;;;5093111;28;20226;-78
2021/06/06 12:46:16;;;;;;;127.85;119.53;;;18.10;99.90;;;;;;5097333;28;20194;-77
2021/06/06 12:51:56;;;;;;;130.68;122.05;;;18.20;99.90;;;;;;5091023;28;20678;-78
2021/06/06 12:54:26;;;;;;;133.15;124.22;;;18.10;99.90;;;;;;5094669;28;20206;-77
2021/06/06 12:57:06;;;;;;;128.45;119.90;;;18.00;99.90;;;;;;5098304;28;20206;-78
2021/06/06 13:05:02;;;;;;;133.10;124.88;;;17.90;99.90;;;;;;5089630;28;20231;-77
2021/06/06 13:07:34;;;;;;;155.88;146.32;;;17.90;99.90;;;;;;5086328;28;20197;-77
2021/06/06 13:10:01;;;;;;;130.15;121.32;;;18.00;99.90;;;;;;5087915;28;20730;-78
2021/06/06 13:12:36;;;;;;;138.25;129.30;;;18.10;99.90;;;;;;5088405;28;20208;-78
2021/06/06 13:15:10;;;;;;;129.90;121.05;;;18.20;99.90;;;;;;5096455;28;20209;-77
2021/06/06 13:20:30;;;;;;;136.93;127.97;;;18.40;99.90;;;;;;5091901;28;20204;-77
2021/06/06 13:25:56;;;;;;;130.75;121.68;;;18.50;99.90;;;;;;5096849;28;20673;-78
2021/06/06 13:28:25;;;;;;;135.35;126.55;;;18.60;99.90;;;;;;5095023;28;20207;-77
2021/06/06 13:39:15;;;;;;;138.75;129.20;;;18.70;99.90;;;;;;5087297;28;20293;-77
2021/06/06 13:41:42;;;;;;;124.75;116.30;;;18.90;99.90;;;;;;5087997;28;20213;-77
2021/06/06 13:44:08;;;;;;;116.43;107.72;;;19.10;99.90;;;;;;5089648;28;20259;-77
2021/06/06 13:46:36;;;;;;;117.18;109.60;;;19.20;99.90;;;;;;5096107;28;20193;-78
2021/06/06 13:54:35;;;;;;;105.43;98.32;;;19.30;99.90;;;;;;5086725;28;20200;-77
2021/06/06 13:57:10;;;;;;;104.88;97.85;;;19.50;99.90;;;;;;5088045;28;20230;-77
2021/06/06 14:10:35;;;;;;;118.25;109.90;;;19.70;99.90;;;;;;5052780;28;20217;-77
2021/06/06 14:13:05;;;;;;;110.18;103.38;;;19.70;99.90;;;;;;5047090;28;20209;-77
2021/06/06 14:15:31;;;;;;;112.78;105.95;;;19.60;99.90;;;;;;5046924;28;20216;-77
2021/06/06 14:17:58;;;;;;;90.57;84.78;;;19.70;99.90;;;;;;5047735;28;20206;-77
2021/06/06 14:20:25;;;;;;;113.28;106.35;;;19.80;99.90;;;;;;5050776;28;20251;-77
2021/06/06 14:22:53;;;;;;;108.85;101.95;;;19.80;99.90;;;;;;5051374;28;20276;-77
2021/06/06 14:25:35;;;;;;;94.72;88.72;;;19.60;99.90;;;;;;5047119;28;20230;-77
2021/06/06 14:28:19;;;;;;;112.80;105.68;;;19.60;99.90;;;;;;5046820;28;20216;-77
2021/06/06 14:30:46;;;;;;;109.32;102.70;;;19.70;99.90;;;;;;5049895;28;20215;-77
2021/06/06 14:33:22;;;;;;;91.25;85.53;;;19.60;99.90;;;;;;5051845;28;20210;-78
2021/06/06 14:35:49;;;;;;;105.22;98.68;;;19.70;99.90;;;;;;5049771;28;20239;-77
2021/06/06 14:38:16;;;;;;;112.18;105.30;;;19.90;99.90;;;;;;5047040;28;20202;-78
2021/06/06 14:40:42;;;;;;;92.70;87.10;;;20.00;99.90;;;;;;5046178;28;20210;-78
2021/06/06 14:43:12;;;;;;;106.22;99.40;;;20.00;99.90;;;;;;5053033;28;20246;-78
2021/06/06 14:45:51;;;;;;;86.65;81.13;;;20.20;99.90;;;;;;5051798;28;20218;-78
2021/06/06 14:48:27;;;;;;;79.13;73.95;;;20.20;99.90;;;;;;5047578;28;20712;-77
2021/06/06 14:56:28;;;;;;;71.25;66.93;;;20.40;99.90;;;;;;5062281;28;20205;-77
2021/06/06 15:06:59;;;;;;;86.45;81.60;;;20.50;99.90;;;;;;5088529;28;20212;-77
2021/06/06 15:09:27;;;;;;;91.95;86.10;;;20.60;99.90;;;;;;5089059;28;20207;-77
2021/06/06 15:11:54;;;;;;;92.85;87.35;;;20.60;99.90;;;;;;5089497;28;20201;-77
2021/06/06 15:17:03;;;;;;;97.97;92.30;;;20.70;99.90;;;;;;5088918;28;20676;-77
2021/06/06 15:19:31;;;;;;;85.32;80.20;;;20.80;99.90;;;;;;5096151;28;20606;-77
2021/06/06 15:22:01;;;;;;;92.28;86.80;;;20.90;99.90;;;;;;5097803;28;20210;-77
2021/06/06 15:24:28;;;;;;;85.03;79.47;;;20.90;99.90;;;;;;5095230;28;20228;-77
2021/06/06 15:26:54;;;;;;;71.65;66.70;;;20.90;99.90;;;;;;5102329;28;20208;-77
2021/06/06 15:32:18;;;;;;;73.68;69.22;;;20.80;99.90;;;;;;5088364;28;20203;-77
2021/06/06 15:37:30;;;;;;;79.63;75.25;;;20.60;99.90;;;;;;5093272;28;20259;-77
2021/06/06 15:39:57;;;;;;;64.40;60.53;;;20.60;99.90;;;;;;5096463;28;20204;-77
2021/06/06 15:42:23;;;;;;;78.97;74.45;;;20.50;99.90;;;;;;5089163;28;20207;-77
2021/06/06 15:47:48;;;;;;;94.20;89.07;;;20.50;99.90;;;;;;5089343;28;20200;-77
2021/06/06 15:50:17;;;;;;;61.83;58.10;;;20.50;99.90;;;;;;5088594;28;20216;-77
2021/06/06 15:52:44;;;;;;;64.65;61.13;;;20.40;99.90;;;;;;5093177;28;20711;-77
2021/06/06 15:55:12;;;;;;;86.70;82.05;;;20.40;99.90;;;;;;5092487;28;20204;-77
2021/06/06 15:57:39;;;;;;;85.32;80.53;;;20.40;99.90;;;;;;5093143;28;20218;-77
2021/06/06 16:00:08;;;;;;;67.22;63.28;;;20.40;99.90;;;;;;5090449;28;20198;-77
2021/06/06 16:02:42;;;;;;;78.90;74.78;;;20.50;99.90;;;;;;5089585;28;20294;-77
2021/06/06 16:08:03;;;;;;;72.47;68.18;;;20.60;99.90;;;;;;5089000;28;20211;-77
2021/06/06 16:10:41;;;;;;;91.57;86.53;;;20.60;99.90;;;;;;5096086;28;20725;-77
2021/06/06 16:18:33;;;;;;;69.88;65.88;;;20.70;99.90;;;;;;5094303;28;20708;-77
2021/06/06 16:29:08;;;;;;;84.05;79.10;;;21.10;99.90;;;;;;5097753;28;20198;-77
2021/06/06 16:31:35;;;;;;;77.68;73.65;;;21.00;99.90;;;;;;5089294;28;20238;-77
2021/06/06 16:34:01;;;;;;;80.07;75.47;;;21.00;99.90;;;;;;5095178;28;20199;-77
2021/06/06 16:41:57;;;;;;;78.97;74.57;;;21.00;99.90;;;;;;5092246;28;20224;-78
2021/06/06 16:44:24;;;;;;;78.78;73.63;;;21.10;99.90;;;;;;5093002;28;20227;-77
2021/06/06 16:46:51;;;;;;;73.65;69.72;;;21.00;99.90;;;;;;5098325;28;20236;-77
2021/06/06 16:49:21;;;;;;;82.97;78.60;;;20.90;99.90;;;;;;5095416;28;20193;-77
2021/06/06 16:51:49;;;;;;;83.72;79.57;;;20.90;99.90;;;;;;5094374;28;20201;-78
2021/06/06 16:54:16;;;;;;;68.95;65.18;;;20.80;99.90;;;;;;5101693;28;20207;-77
2021/06/06 16:56:42;;;;;;;72.65;68.53;;;20.70;99.90;;;;;;5095839;28;20197;-77
2021/06/06 16:59:11;;;;;;;79.93;75.88;;;20.70;99.90;;;;;;5093092;28;20207;-78
2021/06/06 17:01:37;;;;;;;57.92;54.63;;;20.70;99.90;;;;;;5096701;28;20208;-77
2021/06/06 17:04:04;;;;;;;71.53;67.88;;;20.70;99.90;;;;;;5089103;28;20242;-78
2021/06/06 17:09:27;;;;;;;68.70;64.95;;;20.70;99.90;;;;;;5092014;28;20205;-78
2021/06/06 17:19:58;;;;;;;70.93;67.40;;;20.50;99.90;;;;;;5091301;28;20207;-77
2021/06/06 17:25:22;;;;;;;54.72;51.70;;;20.40;99.90;;;;;;5092987;28;20295;-77
2021/06/06 17:30:31;;;;;;;59.35;56.20;;;20.70;99.90;;;;;;5087732;28;20213;-77
2021/06/06 17:33:00;;;;;;;59.42;56.28;;;20.80;99.90;;;;;;5089881;28;20227;-77
2021/06/06 17:35:29;;;;;;;66.05;62.60;;;20.80;99.90;;;;;;5099963;28;20205;-77
2021/06/06 17:37:56;;;;;;;72.90;69.25;;;20.80;99.90;;;;;;5086853;28;20270;-77
2021/06/06 17:40:24;;;;;;;63.13;59.70;;;20.70;99.90;;;;;;5093272;28;20203;-77
2021/06/06 17:42:51;;;;;;;65.80;62.33;;;20.80;99.90;;;;;;5088050;28;20207;-77
2021/06/06 17:45:17;;;;;;;68.18;64.47;;;20.70;99.90;;;;;;5088217;28;20232;-77
2021/06/06 17:47:52;;;;;;;63.72;60.10;;;20.80;99.90;;;;;;5087764;28;20216;-77
2021/06/06 17:50:30;;;;;;;51.95;49.20;;;20.70;99.90;;;;;;5099594;28;20224;-77
2021/06/06 17:55:49;;;;;;;53.63;50.63;;;20.80;99.90;;;;;;5089108;28;20202;-76
2021/06/06 17:58:18;;;;;;;67.47;63.72;;;20.90;99.90;;;;;;5093326;28;20209;-77
2021/06/06 18:00:53;;;;;;;43.35;41.08;;;20.90;99.90;;;;;;5091169;28;20219;-77
2021/06/06 18:11:27;;;;;;;64.47;61.25;;;20.90;99.90;;;;;;5089612;28;20196;-78
2021/06/06 18:16:44;;;;;;;64.75;61.10;;;21.00;99.90;;;;;;5090640;28;20231;-77
2021/06/06 18:22:04;;;;;;;55.05;52.03;;;20.90;99.90;;;;;;5089703;28;20205;-78
2021/06/06 18:27:28;;;;;;;56.40;53.50;;;20.80;99.90;;;;;;5101960;28;20233;-78
2021/06/06 18:32:39;;;;;;;70.45;66.70;;;20.60;99.90;;;;;;5096574;28;20238;-77
2021/06/06 18:37:48;;;;;;;69.70;65.95;;;20.40;99.90;;;;;;5096128;28;20208;-76
2021/06/06 18:40:18;;;;;;;53.20;50.38;;;20.40;99.90;;;;;;5090956;28;20196;-77
2021/06/06 18:43:01;;;;;;;74.00;69.85;;;20.50;99.90;;;;;;5096326;28;20201;-76
2021/06/06 18:45:31;;;;;;;75.32;71.47;;;20.40;99.90;;;;;;5092459;28;20230;-77
2021/06/06 18:50:47;;;;;;;87.25;82.82;;;20.40;99.90;;;;;;5090957;28;20683;-77